LOWG/GRZ METAR and TAF weather

Enter ICAO airport designator
Station Type Date Time Source
LOWG METAR 2022/06/26 07:20 UTC NOAA

LOWG 260720Z VRB02KT 9999 FEW050 23/15 Q1016 NOSIG


Station Type Date Time Source
LOWG Decoded METAR 2022/06/26 07:20 UTC NOAA

Graz-Thalerhof-Flughafen, Austria (LOWG) 47-00N 015-26E 347M
Jun 26, 2022 - 03:20 AM EDT / 2022.06.26 0720 UTC
Wind: Variable at 2 MPH (2 KT):0
Visibility: greater than 7 mile(s):0
Sky conditions: mostly clear
Temperature: 73 F (23 C)
Dew Point: 59 F (15 C)
Relative Humidity: 60%
Pressure (altimeter): 30.00 in. Hg (1016 hPa)
ob: LOWG 260720Z VRB02KT 9999 FEW050 23/15 Q1016 NOSIG
cycle: 7

Station Type Date Time Source
LOWG TAF 2022/06/26 06:21 UTC NOAA

TAF TAF LOWG 260515Z 2606/2706 VRB04KT 9999 FEW050 TX29/2615Z TN16/2703Z
TEMPO 2610/2617 16008KT FEW050CB

Example: see airport list